sensor_id;sensor_type;location;lat;lon;timestamp;P1;durP1;ratioP1;P2;durP2;ratioP2
22435;SDS011;11385;50.822;4.324;2022-12-18T00:02:12;33.10;;;16.32;;
22435;SDS011;11385;50.822;4.324;2022-12-18T00:04:39;28.47;;;16.90;;
22435;SDS011;11385;50.822;4.324;2022-12-18T00:07:06;29.92;;;16.57;;
22435;SDS011;11385;50.822;4.324;2022-12-18T00:09:33;25.48;;;15.30;;
22435;SDS011;11385;50.822;4.324;2022-12-18T00:11:59;27.37;;;15.75;;
22435;SDS011;11385;50.822;4.324;2022-12-18T00:14:26;26.45;;;15.23;;
22435;SDS011;11385;50.822;4.324;2022-12-18T00:16:52;33.00;;;17.35;;
22435;SDS011;11385;50.822;4.324;2022-12-18T00:19:19;30.80;;;16.95;;
22435;SDS011;11385;50.822;4.324;2022-12-18T00:21:46;27.22;;;17.23;;
22435;SDS011;11385;50.822;4.324;2022-12-18T00:24:13;30.88;;;16.67;;
22435;SDS011;11385;50.822;4.324;2022-12-18T00:26:39;29.10;;;17.00;;
22435;SDS011;11385;50.822;4.324;2022-12-18T00:29:07;30.97;;;17.30;;
22435;SDS011;11385;50.822;4.324;2022-12-18T00:31:39;32.48;;;18.15;;
22435;SDS011;11385;50.822;4.324;2022-12-18T00:34:09;28.90;;;17.15;;
22435;SDS011;11385;50.822;4.324;2022-12-18T00:36:38;23.75;;;12.28;;
22435;SDS011;11385;50.822;4.324;2022-12-18T00:39:06;33.05;;;16.95;;
22435;SDS011;11385;50.822;4.324;2022-12-18T00:41:33;29.77;;;16.82;;
22435;SDS011;11385;50.822;4.324;2022-12-18T00:44:06;31.77;;;17.07;;
22435;SDS011;11385;50.822;4.324;2022-12-18T00:46:33;28.47;;;16.93;;
22435;SDS011;11385;50.822;4.324;2022-12-18T00:49:00;30.15;;;15.90;;
22435;SDS011;11385;50.822;4.324;2022-12-18T00:51:27;26.77;;;14.80;;
22435;SDS011;11385;50.822;4.324;2022-12-18T00:53:54;26.95;;;15.93;;
22435;SDS011;11385;50.822;4.324;2022-12-18T00:56:20;26.37;;;15.10;;
22435;SDS011;11385;50.822;4.324;2022-12-18T00:58:47;25.75;;;15.38;;
22435;SDS011;11385;50.822;4.324;2022-12-18T01:01:14;27.20;;;15.20;;
22435;SDS011;11385;50.822;4.324;2022-12-18T01:03:41;24.82;;;14.58;;
22435;SDS011;11385;50.822;4.324;2022-12-18T01:06:09;26.57;;;14.35;;
22435;SDS011;11385;50.822;4.324;2022-12-18T01:08:37;28.32;;;15.08;;
22435;SDS011;11385;50.822;4.324;2022-12-18T01:11:09;25.23;;;14.00;;
22435;SDS011;11385;50.822;4.324;2022-12-18T01:13:37;23.10;;;12.85;;
22435;SDS011;11385;50.822;4.324;2022-12-18T01:16:05;23.98;;;14.10;;
22435;SDS011;11385;50.822;4.324;2022-12-18T01:18:32;21.25;;;13.05;;
22435;SDS011;11385;50.822;4.324;2022-12-18T01:20:59;23.15;;;14.00;;
22435;SDS011;11385;50.822;4.324;2022-12-18T01:23:25;24.90;;;13.45;;
22435;SDS011;11385;50.822;4.324;2022-12-18T01:25:52;23.22;;;13.83;;
22435;SDS011;11385;50.822;4.324;2022-12-18T01:28:19;25.20;;;14.55;;
22435;SDS011;11385;50.822;4.324;2022-12-18T01:30:45;24.80;;;13.22;;
22435;SDS011;11385;50.822;4.324;2022-12-18T01:33:12;24.35;;;13.80;;
22435;SDS011;11385;50.822;4.324;2022-12-18T01:35:41;23.25;;;12.73;;
22435;SDS011;11385;50.822;4.324;2022-12-18T01:38:08;23.30;;;13.88;;
22435;SDS011;11385;50.822;4.324;2022-12-18T01:40:35;23.75;;;13.40;;
22435;SDS011;11385;50.822;4.324;2022-12-18T01:43:02;22.15;;;12.37;;
22435;SDS011;11385;50.822;4.324;2022-12-18T01:45:30;24.50;;;13.68;;
22435;SDS011;11385;50.822;4.324;2022-12-18T01:48:01;20.35;;;12.82;;
22435;SDS011;11385;50.822;4.324;2022-12-18T01:50:31;24.43;;;13.28;;
22435;SDS011;11385;50.822;4.324;2022-12-18T01:53:06;23.70;;;14.03;;
22435;SDS011;11385;50.822;4.324;2022-12-18T01:55:39;27.90;;;14.25;;
22435;SDS011;11385;50.822;4.324;2022-12-18T01:58:09;22.55;;;12.18;;
22435;SDS011;11385;50.822;4.324;2022-12-18T02:00:35;24.92;;;12.93;;
22435;SDS011;11385;50.822;4.324;2022-12-18T02:03:02;22.67;;;12.85;;
22435;SDS011;11385;50.822;4.324;2022-12-18T02:05:33;20.70;;;12.35;;
22435;SDS011;11385;50.822;4.324;2022-12-18T02:08:08;19.73;;;12.30;;
22435;SDS011;11385;50.822;4.324;2022-12-18T02:11:09;22.60;;;12.05;;
22435;SDS011;11385;50.822;4.324;2022-12-18T02:13:44;20.60;;;12.03;;
22435;SDS011;11385;50.822;4.324;2022-12-18T02:16:19;22.35;;;12.30;;
22435;SDS011;11385;50.822;4.324;2022-12-18T02:19:06;25.45;;;11.53;;
22435;SDS011;11385;50.822;4.324;2022-12-18T02:24:33;18.48;;;11.93;;
22435;SDS011;11385;50.822;4.324;2022-12-18T02:27:04;19.95;;;11.53;;
22435;SDS011;11385;50.822;4.324;2022-12-18T02:29:34;19.42;;;11.93;;
22435;SDS011;11385;50.822;4.324;2022-12-18T02:32:06;18.20;;;11.70;;
22435;SDS011;11385;50.822;4.324;2022-12-18T02:37:04;20.02;;;11.57;;
22435;SDS011;11385;50.822;4.324;2022-12-18T02:39:34;22.67;;;12.05;;
22435;SDS011;11385;50.822;4.324;2022-12-18T02:42:03;22.55;;;11.75;;
22435;SDS011;11385;50.822;4.324;2022-12-18T02:44:32;21.90;;;12.05;;
22435;SDS011;11385;50.822;4.324;2022-12-18T02:47:00;22.90;;;12.58;;
22435;SDS011;11385;50.822;4.324;2022-12-18T02:49:31;22.87;;;12.25;;
22435;SDS011;11385;50.822;4.324;2022-12-18T02:56:10;22.13;;;12.70;;
22435;SDS011;11385;50.822;4.324;2022-12-18T02:57:55;20.75;;;12.25;;
22435;SDS011;11385;50.822;4.324;2022-12-18T03:00:41;18.98;;;12.10;;
22435;SDS011;11385;50.822;4.324;2022-12-18T03:03:16;18.67;;;10.25;;
22435;SDS011;11385;50.822;4.324;2022-12-18T03:05:47;19.82;;;9.43;;
22435;SDS011;11385;50.822;4.324;2022-12-18T03:08:18;17.48;;;10.08;;
22435;SDS011;11385;50.822;4.324;2022-12-18T03:10:51;15.50;;;9.53;;
22435;SDS011;11385;50.822;4.324;2022-12-18T03:13:24;18.15;;;10.58;;
22435;SDS011;11385;50.822;4.324;2022-12-18T03:18:34;20.48;;;10.72;;
22435;SDS011;11385;50.822;4.324;2022-12-18T03:21:05;18.35;;;10.80;;
22435;SDS011;11385;50.822;4.324;2022-12-18T03:23:35;15.95;;;9.50;;
22435;SDS011;11385;50.822;4.324;2022-12-18T03:26:05;19.92;;;10.68;;
22435;SDS011;11385;50.822;4.324;2022-12-18T03:28:37;16.55;;;9.48;;
22435;SDS011;11385;50.822;4.324;2022-12-18T03:31:07;17.90;;;10.40;;
22435;SDS011;11385;50.822;4.324;2022-12-18T03:33:38;16.42;;;9.18;;
22435;SDS011;11385;50.822;4.324;2022-12-18T03:36:10;16.05;;;9.68;;
22435;SDS011;11385;50.822;4.324;2022-12-18T03:38:37;17.27;;;9.65;;
22435;SDS011;11385;50.822;4.324;2022-12-18T03:41:10;16.17;;;10.38;;
22435;SDS011;11385;50.822;4.324;2022-12-18T03:43:42;22.15;;;10.70;;
22435;SDS011;11385;50.822;4.324;2022-12-18T03:46:29;16.70;;;9.75;;
22435;SDS011;11385;50.822;4.324;2022-12-18T03:49:00;14.73;;;8.15;;
22435;SDS011;11385;50.822;4.324;2022-12-18T03:51:36;15.45;;;9.08;;
22435;SDS011;11385;50.822;4.324;2022-12-18T03:54:10;15.88;;;8.50;;
22435;SDS011;11385;50.822;4.324;2022-12-18T03:56:40;16.87;;;9.10;;
22435;SDS011;11385;50.822;4.324;2022-12-18T03:59:11;16.32;;;8.55;;
22435;SDS011;11385;50.822;4.324;2022-12-18T04:01:42;12.35;;;8.08;;
22435;SDS011;11385;50.822;4.324;2022-12-18T04:04:11;14.80;;;8.23;;
22435;SDS011;11385;50.822;4.324;2022-12-18T04:06:40;17.48;;;7.92;;
22435;SDS011;11385;50.822;4.324;2022-12-18T04:09:08;14.00;;;7.37;;
22435;SDS011;11385;50.822;4.324;2022-12-18T04:11:35;15.25;;;8.08;;
22435;SDS011;11385;50.822;4.324;2022-12-18T04:14:02;15.65;;;7.85;;
22435;SDS011;11385;50.822;4.324;2022-12-18T04:16:29;15.28;;;8.03;;
22435;SDS011;11385;50.822;4.324;2022-12-18T04:18:56;12.03;;;7.47;;
22435;SDS011;11385;50.822;4.324;2022-12-18T04:21:22;11.80;;;6.95;;
22435;SDS011;11385;50.822;4.324;2022-12-18T04:23:49;15.23;;;8.10;;
22435;SDS011;11385;50.822;4.324;2022-12-18T04:26:16;14.10;;;7.47;;
22435;SDS011;11385;50.822;4.324;2022-12-18T04:28:43;14.18;;;7.83;;
22435;SDS011;11385;50.822;4.324;2022-12-18T04:31:09;12.33;;;7.00;;
22435;SDS011;11385;50.822;4.324;2022-12-18T04:33:36;11.83;;;7.03;;
22435;SDS011;11385;50.822;4.324;2022-12-18T04:36:02;14.70;;;8.83;;
22435;SDS011;11385;50.822;4.324;2022-12-18T04:38:29;14.10;;;8.43;;
22435;SDS011;11385;50.822;4.324;2022-12-18T04:40:56;15.48;;;7.90;;
22435;SDS011;11385;50.822;4.324;2022-12-18T04:43:23;15.83;;;7.72;;
22435;SDS011;11385;50.822;4.324;2022-12-18T04:45:49;15.13;;;7.47;;
22435;SDS011;11385;50.822;4.324;2022-12-18T04:48:16;14.93;;;7.58;;
22435;SDS011;11385;50.822;4.324;2022-12-18T04:50:43;13.25;;;7.65;;
22435;SDS011;11385;50.822;4.324;2022-12-18T04:53:09;11.93;;;7.42;;
22435;SDS011;11385;50.822;4.324;2022-12-18T04:55:36;16.87;;;8.88;;
22435;SDS011;11385;50.822;4.324;2022-12-18T04:58:02;13.03;;;7.58;;
22435;SDS011;11385;50.822;4.324;2022-12-18T05:00:29;12.82;;;7.30;;
22435;SDS011;11385;50.822;4.324;2022-12-18T05:02:55;14.58;;;7.70;;
22435;SDS011;11385;50.822;4.324;2022-12-18T05:05:22;16.12;;;8.08;;
22435;SDS011;11385;50.822;4.324;2022-12-18T05:07:49;13.75;;;7.83;;
22435;SDS011;11385;50.822;4.324;2022-12-18T05:10:15;14.38;;;7.17;;
22435;SDS011;11385;50.822;4.324;2022-12-18T05:12:42;13.98;;;7.17;;
22435;SDS011;11385;50.822;4.324;2022-12-18T05:15:14;14.90;;;7.47;;
22435;SDS011;11385;50.822;4.324;2022-12-18T05:17:41;14.98;;;8.23;;
22435;SDS011;11385;50.822;4.324;2022-12-18T05:20:08;16.35;;;8.53;;
22435;SDS011;11385;50.822;4.324;2022-12-18T05:22:35;11.60;;;7.30;;
22435;SDS011;11385;50.822;4.324;2022-12-18T05:25:01;13.15;;;7.28;;
22435;SDS011;11385;50.822;4.324;2022-12-18T05:27:28;17.40;;;8.10;;
22435;SDS011;11385;50.822;4.324;2022-12-18T05:29:54;12.45;;;7.70;;
22435;SDS011;11385;50.822;4.324;2022-12-18T05:35:06;17.42;;;8.50;;
22435;SDS011;11385;50.822;4.324;2022-12-18T05:37:34;13.03;;;8.03;;
22435;SDS011;11385;50.822;4.324;2022-12-18T05:40:01;13.10;;;6.97;;
22435;SDS011;11385;50.822;4.324;2022-12-18T05:42:30;16.42;;;8.55;;
22435;SDS011;11385;50.822;4.324;2022-12-18T05:44:56;17.17;;;9.25;;
22435;SDS011;11385;50.822;4.324;2022-12-18T05:47:23;15.20;;;9.10;;
22435;SDS011;11385;50.822;4.324;2022-12-18T05:49:50;16.45;;;8.88;;
22435;SDS011;11385;50.822;4.324;2022-12-18T05:52:16;14.10;;;8.45;;
22435;SDS011;11385;50.822;4.324;2022-12-18T05:54:43;15.32;;;8.98;;
22435;SDS011;11385;50.822;4.324;2022-12-18T05:57:09;15.65;;;8.83;;
22435;SDS011;11385;50.822;4.324;2022-12-18T05:59:36;17.17;;;8.78;;
22435;SDS011;11385;50.822;4.324;2022-12-18T06:02:03;19.75;;;8.95;;
22435;SDS011;11385;50.822;4.324;2022-12-18T06:04:29;15.98;;;9.00;;
22435;SDS011;11385;50.822;4.324;2022-12-18T06:06:57;14.53;;;8.75;;
22435;SDS011;11385;50.822;4.324;2022-12-18T06:09:23;15.20;;;8.35;;
22435;SDS011;11385;50.822;4.324;2022-12-18T06:11:51;15.08;;;8.13;;
22435;SDS011;11385;50.822;4.324;2022-12-18T06:14:18;15.58;;;8.58;;
22435;SDS011;11385;50.822;4.324;2022-12-18T06:16:45;17.62;;;8.13;;
22435;SDS011;11385;50.822;4.324;2022-12-18T06:19:14;16.23;;;8.20;;
22435;SDS011;11385;50.822;4.324;2022-12-18T06:21:41;15.63;;;7.78;;
22435;SDS011;11385;50.822;4.324;2022-12-18T06:24:07;11.53;;;7.70;;
22435;SDS011;11385;50.822;4.324;2022-12-18T06:26:36;13.88;;;8.05;;
22435;SDS011;11385;50.822;4.324;2022-12-18T06:29:04;12.90;;;7.25;;
22435;SDS011;11385;50.822;4.324;2022-12-18T06:31:31;13.65;;;7.30;;
22435;SDS011;11385;50.822;4.324;2022-12-18T06:33:57;13.98;;;7.20;;
22435;SDS011;11385;50.822;4.324;2022-12-18T06:36:24;13.65;;;7.62;;
22435;SDS011;11385;50.822;4.324;2022-12-18T06:38:51;13.08;;;7.08;;
22435;SDS011;11385;50.822;4.324;2022-12-18T06:41:18;12.33;;;6.95;;
22435;SDS011;11385;50.822;4.324;2022-12-18T06:43:47;12.45;;;6.42;;
22435;SDS011;11385;50.822;4.324;2022-12-18T06:46:14;11.40;;;6.42;;
22435;SDS011;11385;50.822;4.324;2022-12-18T06:48:41;12.20;;;7.28;;
22435;SDS011;11385;50.822;4.324;2022-12-18T06:51:08;13.03;;;7.58;;
22435;SDS011;11385;50.822;4.324;2022-12-18T06:53:34;15.98;;;7.20;;
22435;SDS011;11385;50.822;4.324;2022-12-18T06:56:02;13.18;;;7.15;;
22435;SDS011;11385;50.822;4.324;2022-12-18T06:58:31;12.43;;;6.83;;
22435;SDS011;11385;50.822;4.324;2022-12-18T07:00:59;12.55;;;6.90;;
22435;SDS011;11385;50.822;4.324;2022-12-18T07:03:27;12.78;;;6.87;;
22435;SDS011;11385;50.822;4.324;2022-12-18T07:05:53;10.90;;;6.30;;
22435;SDS011;11385;50.822;4.324;2022-12-18T07:08:20;13.55;;;6.20;;
22435;SDS011;11385;50.822;4.324;2022-12-18T07:10:47;11.60;;;6.67;;
22435;SDS011;11385;50.822;4.324;2022-12-18T07:13:15;12.25;;;6.37;;
22435;SDS011;11385;50.822;4.324;2022-12-18T07:15:43;11.03;;;6.47;;
22435;SDS011;11385;50.822;4.324;2022-12-18T07:18:09;13.10;;;6.50;;
22435;SDS011;11385;50.822;4.324;2022-12-18T07:20:36;12.53;;;6.90;;
22435;SDS011;11385;50.822;4.324;2022-12-18T07:23:03;14.25;;;7.87;;
22435;SDS011;11385;50.822;4.324;2022-12-18T07:25:35;14.00;;;8.30;;
22435;SDS011;11385;50.822;4.324;2022-12-18T07:28:02;12.85;;;7.62;;
22435;SDS011;11385;50.822;4.324;2022-12-18T07:30:30;12.65;;;7.78;;
22435;SDS011;11385;50.822;4.324;2022-12-18T07:32:56;13.70;;;7.55;;
22435;SDS011;11385;50.822;4.324;2022-12-18T07:35:23;20.62;;;12.53;;
22435;SDS011;11385;50.822;4.324;2022-12-18T07:37:50;13.68;;;7.53;;
22435;SDS011;11385;50.822;4.324;2022-12-18T07:40:16;11.53;;;6.05;;
22435;SDS011;11385;50.822;4.324;2022-12-18T07:42:43;11.70;;;6.70;;
22435;SDS011;11385;50.822;4.324;2022-12-18T07:45:10;14.18;;;7.03;;
22435;SDS011;11385;50.822;4.324;2022-12-18T07:47:36;12.65;;;6.58;;
22435;SDS011;11385;50.822;4.324;2022-12-18T07:50:03;12.85;;;7.12;;
22435;SDS011;11385;50.822;4.324;2022-12-18T07:52:31;13.58;;;7.83;;
22435;SDS011;11385;50.822;4.324;2022-12-18T07:54:57;13.32;;;8.78;;
22435;SDS011;11385;50.822;4.324;2022-12-18T07:57:24;19.00;;;12.05;;
22435;SDS011;11385;50.822;4.324;2022-12-18T07:59:51;19.10;;;11.30;;
22435;SDS011;11385;50.822;4.324;2022-12-18T08:02:17;15.10;;;8.45;;
22435;SDS011;11385;50.822;4.324;2022-12-18T08:04:44;13.43;;;7.90;;
22435;SDS011;11385;50.822;4.324;2022-12-18T08:07:11;17.92;;;8.48;;
22435;SDS011;11385;50.822;4.324;2022-12-18T08:09:37;11.63;;;7.00;;
22435;SDS011;11385;50.822;4.324;2022-12-18T08:12:04;13.00;;;8.05;;
22435;SDS011;11385;50.822;4.324;2022-12-18T08:14:31;14.80;;;7.42;;
22435;SDS011;11385;50.822;4.324;2022-12-18T08:16:58;13.75;;;7.53;;
22435;SDS011;11385;50.822;4.324;2022-12-18T08:19:24;13.93;;;7.50;;
22435;SDS011;11385;50.822;4.324;2022-12-18T08:21:51;11.18;;;6.40;;
22435;SDS011;11385;50.822;4.324;2022-12-18T08:24:18;12.13;;;7.20;;
22435;SDS011;11385;50.822;4.324;2022-12-18T08:26:44;12.90;;;7.45;;
22435;SDS011;11385;50.822;4.324;2022-12-18T08:29:11;14.45;;;6.95;;
22435;SDS011;11385;50.822;4.324;2022-12-18T08:31:38;13.00;;;7.37;;
22435;SDS011;11385;50.822;4.324;2022-12-18T08:34:04;11.75;;;7.45;;
22435;SDS011;11385;50.822;4.324;2022-12-18T08:36:31;12.78;;;7.33;;
22435;SDS011;11385;50.822;4.324;2022-12-18T08:38:57;11.55;;;6.95;;
22435;SDS011;11385;50.822;4.324;2022-12-18T08:41:24;13.90;;;7.28;;
22435;SDS011;11385;50.822;4.324;2022-12-18T08:43:51;12.88;;;7.47;;
22435;SDS011;11385;50.822;4.324;2022-12-18T08:46:23;13.40;;;7.40;;
22435;SDS011;11385;50.822;4.324;2022-12-18T08:48:52;12.85;;;7.10;;
22435;SDS011;11385;50.822;4.324;2022-12-18T08:51:19;14.83;;;6.83;;
22435;SDS011;11385;50.822;4.324;2022-12-18T08:53:46;12.95;;;7.55;;
22435;SDS011;11385;50.822;4.324;2022-12-18T08:56:14;12.75;;;6.70;;
22435;SDS011;11385;50.822;4.324;2022-12-18T08:58:41;21.48;;;11.70;;
22435;SDS011;11385;50.822;4.324;2022-12-18T09:01:09;18.35;;;10.45;;
22435;SDS011;11385;50.822;4.324;2022-12-18T09:03:37;16.70;;;9.98;;
22435;SDS011;11385;50.822;4.324;2022-12-18T09:06:05;26.85;;;16.02;;
22435;SDS011;11385;50.822;4.324;2022-12-18T09:08:32;16.75;;;9.60;;
22435;SDS011;11385;50.822;4.324;2022-12-18T09:10:59;14.25;;;7.97;;
22435;SDS011;11385;50.822;4.324;2022-12-18T09:13:26;12.73;;;7.72;;
22435;SDS011;11385;50.822;4.324;2022-12-18T09:15:53;12.60;;;7.80;;
22435;SDS011;11385;50.822;4.324;2022-12-18T09:18:22;13.88;;;7.75;;
22435;SDS011;11385;50.822;4.324;2022-12-18T09:20:50;13.85;;;7.65;;
22435;SDS011;11385;50.822;4.324;2022-12-18T09:23:18;14.83;;;8.33;;
22435;SDS011;11385;50.822;4.324;2022-12-18T09:25:45;15.58;;;8.63;;
22435;SDS011;11385;50.822;4.324;2022-12-18T09:28:13;13.65;;;8.20;;
22435;SDS011;11385;50.822;4.324;2022-12-18T09:30:44;11.47;;;6.13;;
22435;SDS011;11385;50.822;4.324;2022-12-18T09:33:13;13.00;;;8.10;;
22435;SDS011;11385;50.822;4.324;2022-12-18T09:35:40;13.08;;;8.58;;
22435;SDS011;11385;50.822;4.324;2022-12-18T09:38:09;21.15;;;11.70;;
22435;SDS011;11385;50.822;4.324;2022-12-18T09:40:44;26.52;;;16.75;;
22435;SDS011;11385;50.822;4.324;2022-12-18T09:43:30;15.90;;;8.58;;
22435;SDS011;11385;50.822;4.324;2022-12-18T09:46:03;13.72;;;8.63;;
22435;SDS011;11385;50.822;4.324;2022-12-18T09:48:35;14.47;;;8.58;;
22435;SDS011;11385;50.822;4.324;2022-12-18T09:51:12;14.75;;;8.75;;
22435;SDS011;11385;50.822;4.324;2022-12-18T09:53:46;16.95;;;8.65;;
22435;SDS011;11385;50.822;4.324;2022-12-18T09:56:16;16.48;;;9.65;;
22435;SDS011;11385;50.822;4.324;2022-12-18T09:58:51;14.80;;;8.98;;
22435;SDS011;11385;50.822;4.324;2022-12-18T10:01:22;16.77;;;9.23;;
22435;SDS011;11385;50.822;4.324;2022-12-18T10:03:49;15.85;;;9.80;;
22435;SDS011;11385;50.822;4.324;2022-12-18T10:06:20;17.25;;;10.90;;
22435;SDS011;11385;50.822;4.324;2022-12-18T10:09:00;14.85;;;10.08;;
22435;SDS011;11385;50.822;4.324;2022-12-18T10:11:53;17.67;;;9.90;;
22435;SDS011;11385;50.822;4.324;2022-12-18T10:14:46;14.40;;;9.23;;
22435;SDS011;11385;50.822;4.324;2022-12-18T10:17:39;16.87;;;9.40;;
22435;SDS011;11385;50.822;4.324;2022-12-18T10:20:30;17.23;;;10.20;;
22435;SDS011;11385;50.822;4.324;2022-12-18T10:23:02;15.80;;;9.13;;
22435;SDS011;11385;50.822;4.324;2022-12-18T10:25:39;20.30;;;10.48;;
22435;SDS011;11385;50.822;4.324;2022-12-18T10:28:16;17.77;;;10.63;;
22435;SDS011;11385;50.822;4.324;2022-12-18T10:30:44;17.50;;;10.35;;
22435;SDS011;11385;50.822;4.324;2022-12-18T10:33:12;20.08;;;10.08;;
22435;SDS011;11385;50.822;4.324;2022-12-18T10:35:41;17.75;;;10.15;;
22435;SDS011;11385;50.822;4.324;2022-12-18T10:38:27;20.20;;;11.35;;
22435;SDS011;11385;50.822;4.324;2022-12-18T10:40:59;19.52;;;10.93;;
22435;SDS011;11385;50.822;4.324;2022-12-18T10:43:31;29.20;;;14.07;;
22435;SDS011;11385;50.822;4.324;2022-12-18T10:46:01;20.17;;;12.03;;
22435;SDS011;11385;50.822;4.324;2022-12-18T10:48:35;27.73;;;12.75;;
22435;SDS011;11385;50.822;4.324;2022-12-18T10:51:04;25.65;;;11.48;;
22435;SDS011;11385;50.822;4.324;2022-12-18T10:53:33;19.20;;;11.80;;
22435;SDS011;11385;50.822;4.324;2022-12-18T10:56:02;23.15;;;12.37;;
22435;SDS011;11385;50.822;4.324;2022-12-18T10:58:32;19.37;;;11.68;;
22435;SDS011;11385;50.822;4.324;2022-12-18T11:01:04;18.67;;;11.05;;
22435;SDS011;11385;50.822;4.324;2022-12-18T11:03:41;17.98;;;10.93;;
22435;SDS011;11385;50.822;4.324;2022-12-18T11:06:11;18.02;;;11.15;;
22435;SDS011;11385;50.822;4.324;2022-12-18T11:08:40;15.13;;;8.37;;
22435;SDS011;11385;50.822;4.324;2022-12-18T11:11:16;17.73;;;10.80;;
22435;SDS011;11385;50.822;4.324;2022-12-18T11:16:37;21.45;;;10.93;;
22435;SDS011;11385;50.822;4.324;2022-12-18T11:19:14;20.17;;;11.20;;
22435;SDS011;11385;50.822;4.324;2022-12-18T11:21:48;20.02;;;11.30;;
22435;SDS011;11385;50.822;4.324;2022-12-18T11:24:20;18.92;;;11.00;;
22435;SDS011;11385;50.822;4.324;2022-12-18T11:26:49;29.50;;;16.17;;
22435;SDS011;11385;50.822;4.324;2022-12-18T11:29:17;25.95;;;16.00;;
22435;SDS011;11385;50.822;4.324;2022-12-18T11:31:46;36.73;;;22.30;;
22435;SDS011;11385;50.822;4.324;2022-12-18T11:34:16;19.70;;;12.10;;
22435;SDS011;11385;50.822;4.324;2022-12-18T11:39:14;17.92;;;10.32;;
22435;SDS011;11385;50.822;4.324;2022-12-18T11:41:48;17.30;;;10.08;;
22435;SDS011;11385;50.822;4.324;2022-12-18T11:47:28;21.10;;;11.00;;
22435;SDS011;11385;50.822;4.324;2022-12-18T11:49:58;19.92;;;11.03;;
22435;SDS011;11385;50.822;4.324;2022-12-18T11:52:30;19.52;;;10.35;;
22435;SDS011;11385;50.822;4.324;2022-12-18T11:55:04;20.12;;;11.40;;
22435;SDS011;11385;50.822;4.324;2022-12-18T11:57:41;19.90;;;11.18;;
22435;SDS011;11385;50.822;4.324;2022-12-18T12:00:12;19.65;;;10.78;;
22435;SDS011;11385;50.822;4.324;2022-12-18T12:02:50;18.60;;;10.75;;
22435;SDS011;11385;50.822;4.324;2022-12-18T12:08:09;17.55;;;11.30;;
22435;SDS011;11385;50.822;4.324;2022-12-18T12:10:42;20.80;;;11.45;;
22435;SDS011;11385;50.822;4.324;2022-12-18T12:14:20;18.17;;;10.55;;
22435;SDS011;11385;50.822;4.324;2022-12-18T12:16:08;19.75;;;11.22;;
22435;SDS011;11385;50.822;4.324;2022-12-18T12:18:45;18.55;;;10.93;;
22435;SDS011;11385;50.822;4.324;2022-12-18T12:21:25;19.40;;;10.00;;
22435;SDS011;11385;50.822;4.324;2022-12-18T12:24:00;18.20;;;11.08;;
22435;SDS011;11385;50.822;4.324;2022-12-18T12:26:33;17.87;;;10.10;;
22435;SDS011;11385;50.822;4.324;2022-12-18T12:29:08;41.35;;;22.40;;
22435;SDS011;11385;50.822;4.324;2022-12-18T12:31:40;32.58;;;19.50;;
22435;SDS011;11385;50.822;4.324;2022-12-18T12:34:11;20.32;;;12.18;;
22435;SDS011;11385;50.822;4.324;2022-12-18T12:36:42;23.02;;;14.07;;
22435;SDS011;11385;50.822;4.324;2022-12-18T12:39:15;31.25;;;18.92;;
22435;SDS011;11385;50.822;4.324;2022-12-18T12:41:45;20.72;;;12.93;;
22435;SDS011;11385;50.822;4.324;2022-12-18T12:44:35;18.80;;;10.72;;
22435;SDS011;11385;50.822;4.324;2022-12-18T12:47:07;18.23;;;10.35;;
22435;SDS011;11385;50.822;4.324;2022-12-18T12:52:04;21.52;;;12.00;;
22435;SDS011;11385;50.822;4.324;2022-12-18T12:54:34;20.92;;;12.43;;
22435;SDS011;11385;50.822;4.324;2022-12-18T12:57:07;20.75;;;11.53;;
22435;SDS011;11385;50.822;4.324;2022-12-18T12:59:52;18.35;;;11.70;;
22435;SDS011;11385;50.822;4.324;2022-12-18T13:02:39;22.52;;;12.85;;
22435;SDS011;11385;50.822;4.324;2022-12-18T13:05:19;25.43;;;13.18;;
22435;SDS011;11385;50.822;4.324;2022-12-18T13:07:57;28.17;;;15.70;;
22435;SDS011;11385;50.822;4.324;2022-12-18T13:10:32;29.72;;;14.93;;
22435;SDS011;11385;50.822;4.324;2022-12-18T13:13:02;23.92;;;13.40;;
22435;SDS011;11385;50.822;4.324;2022-12-18T13:15:47;23.35;;;13.18;;
22435;SDS011;11385;50.822;4.324;2022-12-18T13:18:19;25.32;;;13.78;;
22435;SDS011;11385;50.822;4.324;2022-12-18T13:20:49;22.42;;;13.88;;
22435;SDS011;11385;50.822;4.324;2022-12-18T13:23:34;31.05;;;17.65;;
22435;SDS011;11385;50.822;4.324;2022-12-18T13:28:57;22.52;;;12.98;;
22435;SDS011;11385;50.822;4.324;2022-12-18T13:34:19;25.50;;;13.80;;
22435;SDS011;11385;50.822;4.324;2022-12-18T13:36:50;28.83;;;15.80;;
22435;SDS011;11385;50.822;4.324;2022-12-18T13:39:22;30.75;;;15.63;;
22435;SDS011;11385;50.822;4.324;2022-12-18T13:41:53;30.45;;;17.15;;
22435;SDS011;11385;50.822;4.324;2022-12-18T13:44:24;33.05;;;17.70;;
22435;SDS011;11385;50.822;4.324;2022-12-18T13:46:53;29.10;;;16.27;;
22435;SDS011;11385;50.822;4.324;2022-12-18T13:49:36;28.27;;;16.62;;
22435;SDS011;11385;50.822;4.324;2022-12-18T13:54:45;47.35;;;28.42;;
22435;SDS011;11385;50.822;4.324;2022-12-18T13:57:50;48.15;;;28.85;;
22435;SDS011;11385;50.822;4.324;2022-12-18T14:02:45;27.50;;;16.37;;
22435;SDS011;11385;50.822;4.324;2022-12-18T14:07:51;30.12;;;16.57;;
22435;SDS011;11385;50.822;4.324;2022-12-18T14:10:19;28.12;;;16.23;;
22435;SDS011;11385;50.822;4.324;2022-12-18T14:12:47;28.42;;;16.85;;
22435;SDS011;11385;50.822;4.324;2022-12-18T14:15:31;27.98;;;16.25;;
22435;SDS011;11385;50.822;4.324;2022-12-18T14:18:02;36.42;;;17.77;;
22435;SDS011;11385;50.822;4.324;2022-12-18T14:20:32;34.08;;;18.70;;
22435;SDS011;11385;50.822;4.324;2022-12-18T14:23:00;35.85;;;19.37;;
22435;SDS011;11385;50.822;4.324;2022-12-18T14:25:29;39.03;;;20.77;;
22435;SDS011;11385;50.822;4.324;2022-12-18T14:28:07;31.75;;;18.80;;
22435;SDS011;11385;50.822;4.324;2022-12-18T14:30:39;31.02;;;17.45;;
22435;SDS011;11385;50.822;4.324;2022-12-18T14:33:09;34.95;;;18.98;;
22435;SDS011;11385;50.822;4.324;2022-12-18T14:35:42;41.02;;;21.12;;
22435;SDS011;11385;50.822;4.324;2022-12-18T14:38:20;34.08;;;18.85;;
22435;SDS011;11385;50.822;4.324;2022-12-18T14:40:52;34.03;;;18.57;;
22435;SDS011;11385;50.822;4.324;2022-12-18T14:43:21;30.85;;;17.50;;
22435;SDS011;11385;50.822;4.324;2022-12-18T14:45:48;34.75;;;18.65;;
22435;SDS011;11385;50.822;4.324;2022-12-18T14:48:21;34.53;;;18.85;;
22435;SDS011;11385;50.822;4.324;2022-12-18T14:50:56;37.45;;;20.45;;
22435;SDS011;11385;50.822;4.324;2022-12-18T14:53:30;38.28;;;20.25;;
22435;SDS011;11385;50.822;4.324;2022-12-18T14:55:58;35.83;;;19.70;;
22435;SDS011;11385;50.822;4.324;2022-12-18T14:58:24;34.70;;;19.00;;
22435;SDS011;11385;50.822;4.324;2022-12-18T15:00:51;30.97;;;17.55;;
22435;SDS011;11385;50.822;4.324;2022-12-18T15:03:18;32.80;;;18.17;;
22435;SDS011;11385;50.822;4.324;2022-12-18T15:05:47;35.28;;;18.35;;
22435;SDS011;11385;50.822;4.324;2022-12-18T15:08:26;34.03;;;18.17;;
22435;SDS011;11385;50.822;4.324;2022-12-18T15:10:48;33.63;;;17.27;;
22435;SDS011;11385;50.822;4.324;2022-12-18T15:13:23;30.37;;;17.10;;
22435;SDS011;11385;50.822;4.324;2022-12-18T15:15:50;33.70;;;18.12;;
22435;SDS011;11385;50.822;4.324;2022-12-18T15:18:23;31.17;;;17.98;;
22435;SDS011;11385;50.822;4.324;2022-12-18T15:20:54;31.82;;;17.62;;
22435;SDS011;11385;50.822;4.324;2022-12-18T15:23:25;29.63;;;16.82;;
22435;SDS011;11385;50.822;4.324;2022-12-18T15:25:57;30.60;;;17.80;;
22435;SDS011;11385;50.822;4.324;2022-12-18T15:28:31;30.70;;;17.60;;